createdAt,value
2022-09-21T00:00:02.846Z,5.80
2022-09-21T00:01:02.893Z,6.00
2022-09-21T00:02:02.870Z,5.60
2022-09-21T00:03:02.813Z,5.90
2022-09-21T00:04:02.807Z,5.30
2022-09-21T00:05:02.783Z,5.30
2022-09-21T00:06:02.763Z,5.40
2022-09-21T00:07:02.753Z,6.30
2022-09-21T00:08:02.738Z,6.20
2022-09-21T00:09:02.732Z,6.20
2022-09-21T00:10:02.760Z,6.10
2022-09-21T00:11:02.710Z,5.90
2022-09-21T00:12:02.733Z,6.60
2022-09-21T00:13:02.710Z,6.00
2022-09-21T00:14:02.691Z,5.70
2022-09-21T00:15:02.645Z,6.00
2022-09-21T00:16:02.641Z,5.60
2022-09-21T00:17:02.641Z,5.80
2022-09-21T00:18:02.607Z,5.80
2022-09-21T00:19:02.609Z,6.50
2022-09-21T00:20:02.579Z,5.70
2022-09-21T00:21:02.593Z,5.60
2022-09-21T00:22:02.578Z,5.80
2022-09-21T00:23:02.587Z,4.50
2022-09-21T00:24:02.539Z,4.70
2022-09-21T00:25:02.548Z,4.30
2022-09-21T00:26:02.496Z,4.60
2022-09-21T00:27:02.511Z,4.40
2022-09-21T00:28:02.476Z,4.10
2022-09-21T00:29:02.511Z,4.00
2022-09-21T00:30:02.444Z,4.10
2022-09-21T00:31:02.507Z,4.30
2022-09-21T00:32:02.463Z,4.40
2022-09-21T00:33:02.425Z,4.20
2022-09-21T00:34:02.434Z,4.70
2022-09-21T00:35:02.397Z,4.50
2022-09-21T00:36:02.424Z,5.10
2022-09-21T00:37:02.366Z,5.10
2022-09-21T00:38:02.369Z,5.00
2022-09-21T00:39:02.380Z,5.20
2022-09-21T00:40:02.404Z,4.80
2022-09-21T00:41:02.364Z,5.40
2022-09-21T00:42:02.282Z,4.90
2022-09-21T00:43:02.295Z,5.40
2022-09-21T00:44:02.302Z,4.90
2022-09-21T00:45:02.323Z,5.30
2022-09-21T00:46:02.337Z,5.50
2022-09-21T00:47:02.263Z,5.20
2022-09-21T00:48:02.230Z,5.80
2022-09-21T00:49:02.233Z,5.20
2022-09-21T00:50:02.211Z,5.00
2022-09-21T00:51:02.298Z,5.30
2022-09-21T00:52:02.162Z,5.50
2022-09-21T00:53:02.184Z,5.20
2022-09-21T00:54:02.128Z,5.10
2022-09-21T00:55:02.156Z,5.30
2022-09-21T00:56:02.128Z,5.30
2022-09-21T00:57:02.109Z,5.10
2022-09-21T00:58:02.087Z,5.80
2022-09-21T00:59:02.080Z,6.50
2022-09-21T01:00:02.066Z,5.90
2022-09-21T01:01:02.113Z,5.70
2022-09-21T01:02:02.070Z,5.70
2022-09-21T01:03:02.093Z,5.20
2022-09-21T01:04:02.016Z,5.50
2022-09-21T01:05:02.003Z,4.90
2022-09-21T01:06:02.002Z,5.10
2022-09-21T01:07:01.995Z,5.30
2022-09-21T01:08:01.994Z,5.00
2022-09-21T01:09:01.992Z,5.20
2022-09-21T01:10:01.971Z,5.20
2022-09-21T01:11:01.929Z,4.80
2022-09-21T01:12:01.925Z,5.20
2022-09-21T01:13:01.893Z,4.90
2022-09-21T01:14:01.888Z,5.30
2022-09-21T01:15:01.911Z,5.40
2022-09-21T01:16:01.927Z,5.20
2022-09-21T01:17:01.850Z,5.30
2022-09-21T01:18:01.829Z,5.40
2022-09-21T01:19:01.824Z,5.30
2022-09-21T01:20:01.820Z,5.60
2022-09-21T01:21:01.799Z,5.10
2022-09-21T01:22:01.798Z,5.20
2022-09-21T01:23:01.767Z,5.90
2022-09-21T01:24:01.775Z,5.40
2022-09-21T01:25:01.758Z,5.50
2022-09-21T01:26:01.718Z,5.50
2022-09-21T01:27:01.717Z,5.20
2022-09-21T01:28:01.744Z,5.20
2022-09-21T01:29:01.776Z,5.10
2022-09-21T01:30:01.665Z,5.60
2022-09-21T01:31:01.675Z,5.20
2022-09-21T01:32:01.643Z,5.30
2022-09-21T01:33:01.655Z,4.80
2022-09-21T01:34:01.615Z,6.10
2022-09-21T01:35:01.615Z,5.60
2022-09-21T01:36:01.663Z,4.90
2022-09-21T01:37:01.593Z,5.50
2022-09-21T01:38:01.597Z,5.10
2022-09-21T01:39:01.623Z,5.20
2022-09-21T01:40:01.645Z,5.50
2022-09-21T01:41:01.562Z,5.50
2022-09-21T01:42:01.549Z,6.20
2022-09-21T01:43:01.579Z,5.60
2022-09-21T01:44:01.557Z,5.20
2022-09-21T01:45:01.521Z,5.30
2022-09-21T01:46:01.512Z,4.80
2022-09-21T01:47:01.470Z,5.20
2022-09-21T01:48:01.450Z,5.00
2022-09-21T01:49:01.449Z,5.10
2022-09-21T01:50:01.402Z,5.40
2022-09-21T01:51:01.419Z,5.10
2022-09-21T01:52:01.389Z,5.40
2022-09-21T01:53:01.385Z,5.20
2022-09-21T01:54:01.355Z,5.10
2022-09-21T01:55:01.377Z,5.20
2022-09-21T01:56:01.448Z,5.80
2022-09-21T01:57:01.357Z,5.40
2022-09-21T01:58:01.306Z,5.60
2022-09-21T01:59:01.328Z,6.00
2022-09-21T02:00:01.295Z,5.40
2022-09-21T02:01:01.335Z,5.70
2022-09-21T02:02:01.346Z,5.70
2022-09-21T02:03:01.264Z,5.60
2022-09-21T02:04:01.237Z,6.00
2022-09-21T02:05:01.212Z,5.60
2022-09-21T02:06:01.233Z,5.40
2022-09-21T02:07:01.204Z,5.50
2022-09-21T02:08:01.203Z,5.50
2022-09-21T02:09:01.174Z,5.80
2022-09-21T02:10:01.151Z,5.40
2022-09-21T02:11:01.172Z,5.40
2022-09-21T02:12:01.124Z,6.00
2022-09-21T02:13:01.142Z,6.20
2022-09-21T02:14:01.101Z,5.70
2022-09-21T02:15:01.080Z,5.40
2022-09-21T02:16:01.113Z,5.50
2022-09-21T02:17:01.100Z,5.50
2022-09-21T02:18:01.097Z,5.30
2022-09-21T02:19:01.039Z,4.80
2022-09-21T02:20:01.019Z,5.10
2022-09-21T02:21:01.013Z,4.80
2022-09-21T02:22:01.039Z,5.00
2022-09-21T02:23:00.988Z,5.30
2022-09-21T02:24:00.969Z,5.70
2022-09-21T02:25:00.947Z,5.20
2022-09-21T02:26:00.940Z,5.50
2022-09-21T02:27:00.941Z,5.70
2022-09-21T02:28:00.967Z,5.60
2022-09-21T02:29:00.906Z,5.50
2022-09-21T02:30:00.896Z,6.00
2022-09-21T02:31:00.918Z,5.50
2022-09-21T02:32:00.873Z,5.40
2022-09-21T02:33:00.876Z,5.00
2022-09-21T02:34:00.880Z,4.90
2022-09-21T02:35:00.824Z,5.00
2022-09-21T02:36:00.833Z,5.20
2022-09-21T02:37:00.823Z,5.70
2022-09-21T02:38:00.783Z,5.10
2022-09-21T02:39:00.792Z,5.40
2022-09-21T02:40:00.836Z,5.10
2022-09-21T02:41:00.760Z,5.10
2022-09-21T02:42:00.772Z,5.40
2022-09-21T02:43:00.712Z,5.60
2022-09-21T02:44:00.751Z,5.00
2022-09-21T02:45:00.729Z,4.90
2022-09-21T02:46:00.702Z,5.50
2022-09-21T02:47:00.666Z,5.40
2022-09-21T02:48:00.670Z,4.90
2022-09-21T02:49:00.661Z,4.70
2022-09-21T02:50:00.630Z,4.90
2022-09-21T02:51:00.648Z,5.50
2022-09-21T02:52:00.642Z,5.30
2022-09-21T02:53:00.585Z,5.20
2022-09-21T02:54:00.608Z,5.20
2022-09-21T02:55:00.583Z,5.00
2022-09-21T02:56:00.590Z,5.20
2022-09-21T02:57:00.539Z,5.60
2022-09-21T02:58:00.566Z,5.70
2022-09-21T02:59:00.534Z,5.70
2022-09-21T03:00:00.496Z,6.50
2022-09-21T03:01:00.573Z,6.50
2022-09-21T03:02:00.686Z,6.80
2022-09-21T03:03:00.465Z,6.30
2022-09-21T03:04:00.475Z,6.20
2022-09-21T03:05:00.463Z,5.80
2022-09-21T03:06:00.427Z,5.90
2022-09-21T03:07:00.432Z,6.30
2022-09-21T03:08:00.403Z,6.00
2022-09-21T03:09:00.392Z,5.70
2022-09-21T03:10:00.378Z,5.90
2022-09-21T03:11:00.377Z,5.70
2022-09-21T03:12:00.404Z,6.10
2022-09-21T03:13:00.384Z,5.80
2022-09-21T03:14:00.311Z,5.50
2022-09-21T03:15:00.329Z,5.80
2022-09-21T03:16:00.446Z,6.20
2022-09-21T03:17:00.288Z,6.00
2022-09-21T03:18:00.289Z,5.50
2022-09-21T03:19:00.280Z,6.20
2022-09-21T03:20:00.256Z,5.60
2022-09-21T03:21:00.218Z,5.80
2022-09-21T03:22:00.241Z,5.40
2022-09-21T03:23:00.229Z,6.10
2022-09-21T03:24:00.197Z,5.50
2022-09-21T03:25:00.204Z,6.40
2022-09-21T03:26:00.186Z,6.20
2022-09-21T03:27:00.136Z,6.10
2022-09-21T03:28:00.146Z,5.70
2022-09-21T03:29:00.157Z,5.80
2022-09-21T03:30:02.353Z,5.40
2022-09-21T03:31:00.172Z,5.90
2022-09-21T03:32:00.098Z,5.80
2022-09-21T03:33:00.079Z,5.30
2022-09-21T03:34:00.077Z,5.80
2022-09-21T03:35:00.034Z,5.30
2022-09-21T03:36:00.046Z,5.20
2022-09-21T03:37:00.011Z,5.30
2022-09-21T03:38:00.023Z,5.50
2022-09-21T03:38:59.993Z,4.90
2022-09-21T03:40:00.047Z,5.20
2022-09-21T03:41:00.010Z,5.20
2022-09-21T03:41:59.981Z,5.50
2022-09-21T03:42:59.953Z,5.40
2022-09-21T03:43:59.931Z,5.00
2022-09-21T03:44:59.926Z,5.40
2022-09-21T03:45:59.953Z,5.40
2022-09-21T03:46:59.881Z,6.00
2022-09-21T03:47:59.888Z,5.60
2022-09-21T03:48:59.869Z,5.50
2022-09-21T03:49:59.867Z,5.50
2022-09-21T03:50:59.850Z,5.50
2022-09-21T03:51:59.847Z,5.90
2022-09-21T03:52:59.840Z,5.30
2022-09-21T03:53:59.828Z,5.40
2022-09-21T03:54:59.827Z,5.60
2022-09-21T03:55:59.776Z,5.10
2022-09-21T03:56:59.746Z,5.40
2022-09-21T03:57:59.756Z,5.60
2022-09-21T03:58:59.736Z,5.70
2022-09-21T03:59:59.727Z,5.40
2022-09-21T04:00:59.695Z,5.90
2022-09-21T04:01:59.702Z,5.40
2022-09-21T04:02:59.814Z,6.10
2022-09-21T04:03:59.654Z,5.70
2022-09-21T04:04:59.652Z,6.00
2022-09-21T04:05:59.644Z,5.60
2022-09-21T04:06:59.646Z,6.20
2022-09-21T04:07:59.633Z,5.60
2022-09-21T04:08:59.614Z,5.80
2022-09-21T04:09:59.584Z,5.30
2022-09-21T04:10:59.572Z,5.90
2022-09-21T04:11:59.623Z,5.60
2022-09-21T04:12:59.541Z,5.60
2022-09-21T04:13:59.541Z,5.90
2022-09-21T04:14:59.521Z,6.20
2022-09-21T04:15:59.637Z,6.00
2022-09-21T04:16:59.521Z,6.10
2022-09-21T04:17:59.469Z,6.30
2022-09-21T04:18:59.492Z,6.50
2022-09-21T04:19:59.458Z,6.00
2022-09-21T04:20:59.428Z,5.80
2022-09-21T04:21:59.437Z,6.20
2022-09-21T04:22:59.407Z,6.60
2022-09-21T04:24:00.088Z,6.80
2022-09-21T04:24:59.405Z,6.60
2022-09-21T04:25:59.380Z,6.40
2022-09-21T04:26:59.356Z,6.30
2022-09-21T04:27:59.387Z,6.10
2022-09-21T04:28:59.326Z,6.60
2022-09-21T04:29:59.324Z,6.00
2022-09-21T04:30:59.346Z,5.90
2022-09-21T04:31:59.297Z,6.40
2022-09-21T04:32:59.301Z,5.90
2022-09-21T04:33:59.284Z,5.70
2022-09-21T04:34:59.251Z,6.10
2022-09-21T04:35:59.277Z,6.20
2022-09-21T04:36:59.223Z,6.40
2022-09-21T04:37:59.223Z,6.10
2022-09-21T04:38:59.212Z,5.90
2022-09-21T04:39:59.226Z,6.50
2022-09-21T04:40:59.191Z,6.10
2022-09-21T04:41:59.173Z,6.00
2022-09-21T04:42:59.152Z,6.10
2022-09-21T04:43:59.180Z,5.20
2022-09-21T04:44:59.130Z,5.80
2022-09-21T04:45:59.159Z,6.00
2022-09-21T04:46:59.124Z,6.10
2022-09-21T04:47:59.119Z,6.00
2022-09-21T04:48:59.072Z,5.30
2022-09-21T04:49:59.068Z,5.70
2022-09-21T04:50:59.071Z,5.60
2022-09-21T04:51:59.038Z,5.80
2022-09-21T04:52:59.008Z,5.70
2022-09-21T04:53:59.018Z,5.50
2022-09-21T04:54:59.075Z,5.90
2022-09-21T04:55:58.996Z,6.00
2022-09-21T04:56:58.975Z,5.80
2022-09-21T04:57:58.986Z,5.40
2022-09-21T04:58:58.956Z,5.90
2022-09-21T04:59:58.924Z,5.60
2022-09-21T05:00:58.906Z,6.00
2022-09-21T05:01:58.884Z,6.10
2022-09-21T05:02:58.900Z,5.90
2022-09-21T05:03:58.918Z,5.90
2022-09-21T05:04:59.511Z,6.60
2022-09-21T05:05:58.853Z,6.60
2022-09-21T05:06:58.827Z,7.50
2022-09-21T05:07:58.843Z,7.20
2022-09-21T05:08:58.792Z,7.20
2022-09-21T05:11:25.492Z,14.00
2022-09-21T05:12:26.121Z,14.30
2022-09-21T05:13:25.462Z,12.40
2022-09-21T05:14:25.443Z,12.10
2022-09-21T05:15:25.529Z,12.00
2022-09-21T05:16:25.421Z,10.30
2022-09-21T05:17:25.411Z,9.40
2022-09-21T05:18:25.365Z,9.20
2022-09-21T05:19:25.380Z,8.40
2022-09-21T05:20:25.360Z,8.40
2022-09-21T05:21:25.322Z,7.90
2022-09-21T05:22:25.298Z,7.80
2022-09-21T05:23:25.311Z,7.40
2022-09-21T05:24:25.284Z,7.30
2022-09-21T05:25:25.288Z,7.40
2022-09-21T05:26:25.258Z,6.20
2022-09-21T05:27:25.257Z,5.80
2022-09-21T05:28:25.238Z,6.50
2022-09-21T05:29:25.216Z,6.20
2022-09-21T05:30:25.265Z,6.40
2022-09-21T05:31:25.244Z,6.30
2022-09-21T05:32:25.221Z,6.70
2022-09-21T05:33:25.184Z,6.70
2022-09-21T05:34:25.145Z,6.90
2022-09-21T05:35:25.180Z,7.30
2022-09-21T05:36:25.145Z,7.80
2022-09-21T05:37:25.115Z,8.30
2022-09-21T05:38:25.115Z,7.50
2022-09-21T05:39:25.099Z,8.50
2022-09-21T05:40:25.180Z,7.60
2022-09-21T05:41:25.054Z,8.50
2022-09-21T05:42:25.035Z,8.90
2022-09-21T05:43:25.072Z,9.90
2022-09-21T05:44:25.040Z,9.70
2022-09-21T05:45:25.010Z,10.20
2022-09-21T05:46:25.040Z,11.60
2022-09-21T05:47:25.040Z,10.90
2022-09-21T05:48:24.995Z,12.10
2022-09-21T05:49:24.980Z,11.20
2022-09-21T05:50:24.980Z,10.00
2022-09-21T05:51:24.929Z,10.00
2022-09-21T05:52:24.930Z,9.50
2022-09-21T05:53:24.899Z,9.60
2022-09-21T05:54:24.921Z,9.50
2022-09-21T05:55:24.946Z,9.40
2022-09-21T05:56:24.894Z,9.30
2022-09-21T05:57:28.664Z,9.20
2022-09-21T05:58:25.870Z,10.20
2022-09-21T05:59:24.857Z,9.90
2022-09-21T06:00:24.814Z,9.10
2022-09-21T06:01:24.882Z,9.80
2022-09-21T06:02:24.836Z,9.70
2022-09-21T06:03:24.794Z,11.50
2022-09-21T06:04:24.765Z,12.40
2022-09-21T06:05:24.792Z,14.20
2022-09-21T06:06:24.735Z,14.00
2022-09-21T06:07:24.715Z,14.60
2022-09-21T06:08:24.721Z,13.70
2022-09-21T06:09:24.704Z,13.30
2022-09-21T06:10:24.691Z,13.70
2022-09-21T06:11:24.750Z,13.00
2022-09-21T06:12:24.644Z,13.30
2022-09-21T06:13:24.651Z,13.10
2022-09-21T06:14:24.625Z,12.30
2022-09-21T06:15:24.641Z,11.90
2022-09-21T06:16:24.658Z,12.00
2022-09-21T06:17:24.628Z,11.40
2022-09-21T06:18:24.598Z,10.50
2022-09-21T06:19:24.595Z,10.00
2022-09-21T06:20:24.597Z,9.50
2022-09-21T06:21:24.578Z,10.20
2022-09-21T06:22:24.517Z,8.90
2022-09-21T06:23:24.528Z,8.30
2022-09-21T06:24:25.257Z,8.20
2022-09-21T06:25:24.512Z,7.40
2022-09-21T06:26:24.477Z,7.20
2022-09-21T06:27:24.471Z,6.90
2022-09-21T06:28:24.455Z,6.60
2022-09-21T06:29:24.487Z,6.60
2022-09-21T06:30:24.497Z,6.70
2022-09-21T06:31:24.465Z,6.50
2022-09-21T06:32:24.400Z,6.20
2022-09-21T06:33:24.398Z,6.10
2022-09-21T06:34:24.405Z,6.20
2022-09-21T06:35:24.364Z,6.10
2022-09-21T06:36:24.365Z,6.10
2022-09-21T06:37:24.323Z,6.10
2022-09-21T06:38:24.346Z,5.90
2022-09-21T06:39:24.363Z,6.50
2022-09-21T06:40:24.377Z,6.80
2022-09-21T06:41:24.323Z,6.30
2022-09-21T06:42:24.292Z,6.60
2022-09-21T06:43:24.300Z,6.10
2022-09-21T06:44:24.251Z,6.90
2022-09-21T06:45:24.226Z,6.20
2022-09-21T06:46:24.255Z,7.00
2022-09-21T06:47:24.207Z,6.70
2022-09-21T06:48:24.191Z,6.70
2022-09-21T06:49:24.194Z,6.50
2022-09-21T06:50:24.171Z,6.60
2022-09-21T06:51:24.167Z,7.00
2022-09-21T06:52:24.130Z,5.90
2022-09-21T06:53:24.142Z,6.20
2022-09-21T06:54:24.114Z,6.30
2022-09-21T06:55:24.115Z,6.00
2022-09-21T06:56:24.117Z,5.80
2022-09-21T06:57:24.099Z,5.60
2022-09-21T06:58:24.076Z,5.60
2022-09-21T06:59:24.075Z,5.90
2022-09-21T07:00:24.056Z,5.80
2022-09-21T07:01:24.153Z,5.50
2022-09-21T07:02:24.050Z,5.70
2022-09-21T07:03:24.035Z,5.60
2022-09-21T07:04:25.255Z,6.10
2022-09-21T07:05:23.957Z,7.00
2022-09-21T07:06:23.981Z,6.00
2022-09-21T07:07:23.973Z,5.90
2022-09-21T07:10:24.900Z,5.80
2022-09-21T07:11:23.944Z,6.30
2022-09-21T07:12:23.920Z,6.20
2022-09-21T07:13:23.861Z,6.10
2022-09-21T07:14:23.841Z,5.50
2022-09-21T07:15:23.830Z,5.60
2022-09-21T07:16:23.900Z,5.60
2022-09-21T07:17:23.819Z,6.00
2022-09-21T07:18:23.829Z,5.80
2022-09-21T07:19:23.787Z,6.30
2022-09-21T07:20:23.769Z,6.40
2022-09-21T07:21:23.799Z,6.20
2022-09-21T07:22:23.759Z,6.00
2022-09-21T07:23:23.949Z,6.60
2022-09-21T07:24:23.728Z,6.10
2022-09-21T07:25:23.698Z,6.80
2022-09-21T07:26:23.707Z,6.70
2022-09-21T07:27:23.727Z,7.00
2022-09-21T07:28:23.677Z,6.90
2022-09-21T07:29:23.695Z,7.00
2022-09-21T07:30:23.645Z,6.30
2022-09-21T07:31:23.700Z,6.50
2022-09-21T07:32:23.616Z,6.20
2022-09-21T07:33:23.645Z,6.90
2022-09-21T07:34:23.594Z,6.00
2022-09-21T07:35:23.571Z,7.30
2022-09-21T07:36:23.574Z,7.10
2022-09-21T07:37:23.544Z,6.90
2022-09-21T07:38:23.533Z,6.70
2022-09-21T07:39:23.522Z,7.20
2022-09-21T07:40:25.388Z,7.10
2022-09-21T07:41:23.586Z,7.10
2022-09-21T07:42:23.514Z,6.60
2022-09-21T07:43:23.503Z,7.10
2022-09-21T07:44:23.491Z,7.20
2022-09-21T07:45:23.509Z,7.50
2022-09-21T07:46:23.441Z,7.70
2022-09-21T07:47:23.448Z,7.60
2022-09-21T07:48:23.448Z,7.70
2022-09-21T07:49:23.400Z,7.70
2022-09-21T07:50:23.443Z,7.80
2022-09-21T07:51:23.445Z,7.50
2022-09-21T07:52:23.374Z,7.90
2022-09-21T07:53:23.351Z,8.00
2022-09-21T07:54:23.329Z,7.60
2022-09-21T07:55:23.317Z,7.50
2022-09-21T07:56:23.312Z,7.80
2022-09-21T07:57:23.301Z,7.60
2022-09-21T07:58:23.278Z,8.10
2022-09-21T07:59:23.296Z,8.10
2022-09-21T08:00:23.313Z,7.30
2022-09-21T08:01:23.316Z,7.60
2022-09-21T08:02:23.324Z,7.80
2022-09-21T08:03:23.236Z,7.00
2022-09-21T08:04:23.216Z,7.70
2022-09-21T08:05:23.186Z,7.30
2022-09-21T08:06:23.204Z,7.60
2022-09-21T08:07:23.196Z,7.00
2022-09-21T08:08:23.173Z,7.30
2022-09-21T08:09:23.167Z,7.40
2022-09-21T08:10:23.179Z,6.80
2022-09-21T08:11:23.135Z,6.70
2022-09-21T08:12:23.094Z,6.60
2022-09-21T08:13:23.103Z,7.30
2022-09-21T08:14:26.281Z,6.60
2022-09-21T08:15:46.853Z,7.70
2022-09-21T08:16:24.084Z,7.60
2022-09-21T08:17:23.054Z,6.90
2022-09-21T08:18:23.010Z,6.90
2022-09-21T08:19:23.009Z,6.80
2022-09-21T08:20:23.072Z,7.20
2022-09-21T08:21:23.004Z,7.30
2022-09-21T08:22:22.987Z,7.70
2022-09-21T08:23:22.949Z,8.10
2022-09-21T08:24:22.952Z,7.90
2022-09-21T08:25:22.931Z,8.50
2022-09-21T08:26:22.928Z,7.90
2022-09-21T08:27:25.199Z,8.10
2022-09-21T08:28:22.919Z,7.40
2022-09-21T08:29:22.897Z,7.20
2022-09-21T08:30:22.976Z,7.50
2022-09-21T08:31:22.977Z,7.30
2022-09-21T08:32:46.606Z,7.20
2022-09-21T08:33:28.615Z,7.30
2022-09-21T08:34:23.856Z,7.20
2022-09-21T08:35:22.887Z,7.00
2022-09-21T08:36:22.796Z,7.10
2022-09-21T08:37:22.800Z,6.90
2022-09-21T08:38:22.778Z,6.90
2022-09-21T08:39:22.763Z,6.60
2022-09-21T08:40:22.903Z,6.20
2022-09-21T08:41:22.729Z,6.80
2022-09-21T08:42:22.733Z,6.80
2022-09-21T08:43:22.699Z,6.70
2022-09-21T08:44:22.736Z,6.30
2022-09-21T08:45:22.701Z,6.90
2022-09-21T08:46:22.734Z,6.20
2022-09-21T08:47:22.651Z,6.00
2022-09-21T08:48:26.929Z,6.40
2022-09-21T08:49:23.650Z,6.50
2022-09-21T08:50:22.657Z,6.70
2022-09-21T08:51:22.598Z,6.20
2022-09-21T08:52:22.629Z,6.00
2022-09-21T08:53:22.559Z,5.70
2022-09-21T08:54:22.598Z,5.60
2022-09-21T08:55:22.623Z,5.70
2022-09-21T08:56:22.598Z,5.00
2022-09-21T08:57:22.550Z,4.90
2022-09-21T08:58:22.518Z,5.20
2022-09-21T08:59:22.490Z,4.80
2022-09-21T09:00:22.612Z,5.20
2022-09-21T09:01:22.629Z,5.20
2022-09-21T09:02:22.581Z,4.50
2022-09-21T09:03:22.521Z,3.90
2022-09-21T09:04:22.477Z,3.40
2022-09-21T09:05:22.458Z,3.60
2022-09-21T09:06:26.015Z,3.40
2022-09-21T09:07:22.405Z,3.40
2022-09-21T09:08:22.410Z,3.50
2022-09-21T09:09:22.366Z,3.60
2022-09-21T09:10:22.423Z,3.40
2022-09-21T09:11:22.334Z,3.50
2022-09-21T09:12:22.369Z,3.50
2022-09-21T09:13:22.311Z,3.70
2022-09-21T09:14:22.353Z,3.80
2022-09-21T09:15:22.283Z,3.20
2022-09-21T09:16:22.384Z,2.70
2022-09-21T09:17:22.281Z,3.00
2022-09-21T09:18:22.291Z,3.20
2022-09-21T09:19:22.261Z,3.70
2022-09-21T09:20:22.278Z,2.90
2022-09-21T09:21:28.980Z,2.30
2022-09-21T09:22:23.230Z,2.40
2022-09-21T09:23:22.188Z,2.20
2022-09-21T09:24:22.222Z,2.40
2022-09-21T09:25:22.160Z,2.50
2022-09-21T09:26:22.209Z,3.90
2022-09-21T09:27:22.133Z,4.20
2022-09-21T09:28:22.166Z,3.10
2022-09-21T09:29:22.126Z,2.70
2022-09-21T09:30:22.153Z,2.60
2022-09-21T09:31:22.159Z,2.30
2022-09-21T09:32:22.114Z,1.90
2022-09-21T09:33:22.057Z,1.90
2022-09-21T09:34:22.049Z,2.20
2022-09-21T09:35:22.068Z,2.10
2022-09-21T09:36:40.130Z,1.80
2022-09-21T09:37:23.047Z,2.20
2022-09-21T09:38:22.044Z,2.30
2022-09-21T09:39:21.996Z,2.40
2022-09-21T09:40:22.123Z,2.50
2022-09-21T09:41:22.035Z,2.30
2022-09-21T09:42:21.964Z,2.00
2022-09-21T09:43:21.954Z,1.90
2022-09-21T09:44:21.933Z,2.30
2022-09-21T09:45:24.951Z,1.60
2022-09-21T09:46:21.985Z,1.80
2022-09-21T09:47:21.913Z,1.90
2022-09-21T09:48:21.892Z,1.60
2022-09-21T09:49:22.945Z,1.90
2022-09-21T09:50:21.984Z,1.40
2022-09-21T09:51:21.891Z,1.60
2022-09-21T09:52:21.828Z,1.40
2022-09-21T09:53:21.841Z,1.20
2022-09-21T09:54:21.834Z,1.40
2022-09-21T09:55:21.806Z,1.30
2022-09-21T09:56:21.770Z,1.30
2022-09-21T09:57:21.795Z,1.40
2022-09-21T09:58:21.791Z,1.20
2022-09-21T09:59:21.789Z,1.30
2022-09-21T10:00:21.824Z,1.60
2022-09-21T10:01:21.830Z,1.20
2022-09-21T10:02:21.698Z,1.00
2022-09-21T10:03:21.697Z,1.30
2022-09-21T10:04:21.729Z,1.00
2022-09-21T10:05:21.666Z,1.20
2022-09-21T10:06:21.669Z,1.40
2022-09-21T10:07:21.637Z,1.30
2022-09-21T10:08:21.626Z,1.30
2022-09-21T10:09:21.675Z,1.50
2022-09-21T10:10:21.672Z,1.20
2022-09-21T10:11:21.606Z,1.10
2022-09-21T10:12:21.574Z,1.10
2022-09-21T10:13:21.563Z,1.00
2022-09-21T10:14:21.545Z,1.10
2022-09-21T10:15:21.545Z,1.10
2022-09-21T10:16:21.625Z,1.30
2022-09-21T10:17:21.606Z,1.10
2022-09-21T10:18:21.496Z,1.20
2022-09-21T10:19:21.522Z,1.00
2022-09-21T10:20:21.570Z,1.00
2022-09-21T10:21:21.451Z,0.80
2022-09-21T10:22:21.522Z,1.00
2022-09-21T10:23:21.422Z,1.20
2022-09-21T10:24:21.434Z,1.10
2022-09-21T10:25:21.402Z,0.90
2022-09-21T10:26:21.443Z,1.00
2022-09-21T10:27:21.471Z,1.30
2022-09-21T10:28:21.416Z,0.90
2022-09-21T10:29:21.350Z,1.10
2022-09-21T10:30:21.410Z,1.10
2022-09-21T10:31:21.545Z,1.10
2022-09-21T10:32:21.333Z,0.80
2022-09-21T10:33:21.304Z,1.00
2022-09-21T10:34:21.314Z,1.10
2022-09-21T10:35:21.269Z,1.10
2022-09-21T10:36:21.267Z,0.90
2022-09-21T10:37:21.273Z,1.10
2022-09-21T10:38:22.634Z,0.80
2022-09-21T10:39:21.248Z,0.90
2022-09-21T10:40:21.424Z,0.90
2022-09-21T10:41:21.196Z,1.40
2022-09-21T10:42:21.228Z,0.80
2022-09-21T10:43:21.185Z,0.90
2022-09-21T10:44:21.215Z,1.20
2022-09-21T10:45:21.230Z,0.80
2022-09-21T10:46:21.216Z,1.20
2022-09-21T10:47:21.128Z,0.80
2022-09-21T10:48:21.165Z,0.80
2022-09-21T10:49:21.105Z,0.90
2022-09-21T10:50:21.124Z,0.90
2022-09-21T10:51:21.094Z,0.90
2022-09-21T10:52:21.058Z,0.90
2022-09-21T10:53:21.073Z,1.00
2022-09-21T10:54:21.044Z,0.80
2022-09-21T10:55:21.038Z,0.80
2022-09-21T10:56:21.064Z,1.00
2022-09-21T10:57:21.023Z,1.40
2022-09-21T10:58:20.972Z,0.80
2022-09-21T10:59:20.976Z,0.80
2022-09-21T11:00:20.983Z,0.80
2022-09-21T11:01:21.167Z,0.80
2022-09-21T11:02:20.963Z,0.80
2022-09-21T11:03:20.984Z,1.00
2022-09-21T11:04:20.901Z,1.00
2022-09-21T11:05:20.888Z,0.90
2022-09-21T11:06:20.934Z,0.90
2022-09-21T11:07:20.891Z,0.90
2022-09-21T11:08:20.852Z,1.00
2022-09-21T11:09:20.918Z,0.70
2022-09-21T11:10:20.829Z,1.00
2022-09-21T11:11:20.861Z,1.40
2022-09-21T11:12:20.799Z,0.80
2022-09-21T11:13:20.807Z,0.90
2022-09-21T11:14:20.769Z,1.00
2022-09-21T11:15:20.758Z,0.90
2022-09-21T11:16:20.785Z,0.80
2022-09-21T11:17:20.767Z,0.90
2022-09-21T11:18:20.738Z,0.90
2022-09-21T11:19:20.836Z,1.10
2022-09-21T11:20:20.749Z,0.80
2022-09-21T11:21:20.695Z,0.90
2022-09-21T11:22:20.681Z,0.70
2022-09-21T11:23:20.668Z,0.80
2022-09-21T11:24:20.644Z,0.90
2022-09-21T11:25:20.644Z,0.70
2022-09-21T11:26:20.626Z,0.70
2022-09-21T11:27:20.605Z,0.60
2022-09-21T11:28:20.608Z,0.80
2022-09-21T11:29:20.646Z,0.70
2022-09-21T11:30:20.583Z,0.70
2022-09-21T11:31:20.651Z,0.80
2022-09-21T11:32:20.552Z,0.80
2022-09-21T11:33:20.546Z,0.70
2022-09-21T11:34:20.531Z,0.70
2022-09-21T11:35:20.582Z,0.90
2022-09-21T11:36:20.490Z,0.70
2022-09-21T11:37:20.491Z,0.80
2022-09-21T11:38:20.511Z,0.70
2022-09-21T11:39:20.481Z,0.80
2022-09-21T11:40:20.501Z,0.90
2022-09-21T11:41:20.433Z,0.70
2022-09-21T11:42:20.421Z,0.90
2022-09-21T11:43:23.063Z,0.80
2022-09-21T11:44:20.425Z,0.70
2022-09-21T11:45:20.379Z,0.80
2022-09-21T11:46:20.580Z,1.00
2022-09-21T11:47:20.931Z,0.80
2022-09-21T11:48:20.338Z,0.60
2022-09-21T11:49:20.328Z,0.60
2022-09-21T11:50:31.535Z,0.70
2022-09-21T11:51:21.306Z,0.70
2022-09-21T11:52:20.298Z,0.80
2022-09-21T11:53:20.306Z,0.60
2022-09-21T11:54:20.249Z,0.70
2022-09-21T11:55:20.284Z,0.80
2022-09-21T11:56:20.226Z,1.10
2022-09-21T11:57:20.223Z,0.80
2022-09-21T11:58:20.231Z,0.60
2022-09-21T11:59:20.206Z,0.70
2022-09-21T12:00:20.195Z,0.70
2022-09-21T12:01:20.173Z,0.70
2022-09-21T12:02:20.370Z,0.60
2022-09-21T12:03:20.156Z,0.80
2022-09-21T12:04:20.141Z,0.70
2022-09-21T12:05:20.124Z,0.70
2022-09-21T12:06:20.172Z,1.00
2022-09-21T12:07:20.090Z,0.70
2022-09-21T12:08:20.077Z,0.70
2022-09-21T12:09:20.311Z,0.80
2022-09-21T12:10:20.105Z,0.80
2022-09-21T12:11:20.101Z,0.70
2022-09-21T12:12:20.091Z,0.80
2022-09-21T12:13:20.020Z,0.80
2022-09-21T12:14:20.001Z,0.70
2022-09-21T12:15:20.049Z,0.70
2022-09-21T12:16:20.000Z,0.70
2022-09-21T12:17:20.028Z,0.60
2022-09-21T12:18:19.980Z,0.70
2022-09-21T12:19:19.963Z,0.80
2022-09-21T12:20:19.920Z,0.70
2022-09-21T12:21:19.913Z,0.60
2022-09-21T12:22:19.939Z,0.60
2022-09-21T12:23:19.950Z,0.60
2022-09-21T12:24:19.870Z,0.60
2022-09-21T12:25:19.887Z,0.50
2022-09-21T12:26:19.886Z,0.50
2022-09-21T12:27:19.859Z,0.60
2022-09-21T12:28:19.862Z,0.50
2022-09-21T12:29:19.810Z,0.60
2022-09-21T12:30:19.824Z,0.70
2022-09-21T12:31:19.879Z,0.60
2022-09-21T12:32:19.781Z,0.60
2022-09-21T12:33:19.796Z,0.60
2022-09-21T12:34:19.757Z,0.60
2022-09-21T12:35:19.746Z,0.50
2022-09-21T12:36:19.723Z,0.40
2022-09-21T12:37:19.744Z,0.50
2022-09-21T12:38:19.753Z,0.50
2022-09-21T12:39:19.692Z,0.50
2022-09-21T12:40:19.751Z,0.70
2022-09-21T12:41:19.680Z,0.70
2022-09-21T12:42:19.645Z,0.70
2022-09-21T12:43:19.634Z,0.70
2022-09-21T12:44:19.662Z,0.50
2022-09-21T12:45:19.613Z,0.60
2022-09-21T12:46:19.655Z,0.50
2022-09-21T12:47:19.584Z,0.70
2022-09-21T12:48:19.561Z,0.40
2022-09-21T12:49:19.572Z,0.50
2022-09-21T12:50:19.552Z,0.50
2022-09-21T12:51:19.582Z,0.70
2022-09-21T12:52:19.522Z,0.50
2022-09-21T12:53:19.509Z,0.40
2022-09-21T12:54:19.528Z,0.50
2022-09-21T12:55:19.491Z,0.50
2022-09-21T12:56:19.481Z,0.60
2022-09-21T12:57:40.751Z,0.50
2022-09-21T12:58:20.431Z,0.60
2022-09-21T12:59:19.468Z,0.40
2022-09-21T13:00:19.401Z,0.40
2022-09-21T13:01:19.498Z,0.60
2022-09-21T13:02:32.339Z,0.60
2022-09-21T13:03:19.430Z,0.60
2022-09-21T13:04:19.402Z,0.40
2022-09-21T13:05:30.781Z,0.50
2022-09-21T13:06:30.630Z,0.50
2022-09-21T13:07:19.361Z,0.30
2022-09-21T13:08:19.308Z,0.50
2022-09-21T13:09:19.300Z,0.40
2022-09-21T13:10:19.286Z,0.40
2022-09-21T13:11:19.298Z,0.30
2022-09-21T13:12:19.299Z,0.30
2022-09-21T13:13:19.247Z,0.40
2022-09-21T13:14:19.316Z,0.50
2022-09-21T13:15:19.256Z,0.60
2022-09-21T13:16:19.252Z,0.50
2022-09-21T13:17:19.197Z,0.50
2022-09-21T13:18:35.121Z,0.30
2022-09-21T13:20:25.193Z,0.60
2022-09-21T13:21:25.163Z,0.60